Time;durP1;ratioP1;P1;durP2;ratioP2;P2;SDS_P1;SDS_P2;PMS_P1;PMS_P2;Temp;Humidity;BMP_temperature;BMP_pressure;BME280_temperature;BME280_humidity;BME280_pressure;Samples;Min_cycle;Max_cycle;Signal;HPM_P1;HPM_P2
2022/02/01 00:01:39;;;;;;;32.00;17.50;;;;;;;1.42;69.72;97338.41;5049798;28;20055;-57
2022/02/01 00:04:07;;;;;;;31.80;17.00;;;;;;;1.39;69.93;97336.03;5051589;28;20053;-58
2022/02/01 00:09:09;;;;;;;31.55;17.25;;;;;;;1.16;70.47;97308.91;5050587;28;20029;-58
2022/02/01 00:11:51;;;;;;;34.97;18.20;;;;;;;1.36;70.63;97332.78;5051015;28;20029;-57
2022/02/01 00:36:06;;;;;;;30.70;17.10;;;;;;;1.40;70.36;97327.16;5050486;28;20032;-56
2022/02/01 00:38:42;;;;;;;31.80;17.67;;;;;;;1.52;69.45;97338.47;5038957;28;20548;-57
2022/02/01 00:41:09;;;;;;;30.98;16.67;;;;;;;1.52;69.80;97332.34;5031448;28;20040;-55
2022/02/01 00:43:36;;;;;;;31.55;17.08;;;;;;;1.54;69.54;97339.16;5048277;28;20040;-56
2022/02/01 00:46:02;;;;;;;35.30;17.98;;;;;;;1.53;69.79;97329.59;5049199;28;20047;-55
2022/02/01 00:48:29;;;;;;;31.77;18.02;;;;;;;1.60;69.70;97334.34;5066756;28;20131;-54
2022/02/01 00:50:55;;;;;;;34.35;18.38;;;;;;;1.56;69.04;97324.06;5054939;28;20029;-62
2022/02/01 00:53:26;;;;;;;32.25;17.90;;;;;;;1.63;69.12;97334.94;5049242;28;20055;-53
2022/02/01 00:55:58;;;;;;;33.20;17.92;;;;;;;1.70;69.14;97329.97;5049660;28;20047;-56
2022/02/01 00:58:24;;;;;;;34.45;18.60;;;;;;;1.65;68.84;97326.88;5048669;28;20051;-55
2022/02/01 01:00:50;;;;;;;35.45;18.63;;;;;;;1.72;68.82;97323.59;5049137;28;20024;-56
2022/02/01 01:03:16;;;;;;;33.97;17.83;;;;;;;1.71;68.26;97327.19;5044571;28;20034;-55
2022/02/01 01:05:42;;;;;;;34.75;18.23;;;;;;;1.71;68.84;97329.84;5038152;28;20041;-56
2022/02/01 01:08:08;;;;;;;37.45;19.90;;;;;;;1.64;68.76;97323.41;5029066;28;20926;-53
2022/02/01 01:10:34;;;;;;;35.40;19.20;;;;;;;1.70;68.66;97335.25;5029638;28;20030;-57
2022/02/01 01:15:31;;;;;;;34.85;18.67;;;;;;;1.68;68.87;97327.47;5030106;28;20071;-53
2022/02/01 01:45:23;;;;;;;32.45;17.98;;;;;;;1.70;69.19;97341.34;5048697;28;20033;-52
2022/02/01 01:53:22;;;;;;;35.58;18.60;;;;;;;1.69;68.99;97355.50;5047410;28;20050;-59
2022/02/01 01:55:51;;;;;;;33.03;18.20;;;;;;;1.75;69.09;97348.03;5037406;28;20025;-59
2022/02/01 01:58:17;;;;;;;34.88;18.20;;;;;;;1.61;70.02;97330.75;5048914;28;20366;-55
2022/02/01 02:03:16;;;;;;;31.02;18.15;;;;;;;1.63;69.30;97323.53;5049079;28;20060;-59
2022/02/01 02:05:42;;;;;;;32.08;17.17;;;;;;;1.81;69.39;97356.28;5047172;28;20037;-57
2022/02/01 02:08:08;;;;;;;32.45;18.10;;;;;;;1.80;69.72;97359.88;5028920;28;20037;-60
2022/02/01 02:10:40;;;;;;;31.13;16.95;;;;;;;1.79;69.63;97363.50;5030206;28;20108;-56
2022/02/01 02:15:59;;;;;;;32.05;17.08;;;;;;;1.77;69.74;97367.22;5029530;28;20029;-53
2022/02/01 02:18:27;;;;;;;36.00;17.70;;;;;;;1.75;69.41;97374.41;5030134;28;20120;-62
2022/02/01 02:20:54;;;;;;;33.05;17.50;;;;;;;1.61;69.26;97362.38;5045641;28;20433;-55
2022/02/01 02:23:21;;;;;;;31.50;17.42;;;;;;;1.66;69.62;97383.94;5049419;28;20021;-56
2022/02/01 02:25:47;;;;;;;34.45;18.08;;;;;;;1.64;69.65;97367.41;5051701;28;20437;-58
2022/02/01 02:28:15;;;;;;;34.75;18.42;;;;;;;1.62;69.53;97371.97;5053378;28;20516;-58
2022/02/01 02:30:42;;;;;;;35.30;18.38;;;;;;;1.58;69.40;97376.69;5046819;28;20308;-58
2022/02/01 02:33:12;;;;;;;32.45;17.83;;;;;;;1.54;68.97;97377.88;5053032;28;20385;-56
2022/02/01 02:36:04;;;;;;;32.60;17.63;;;;;;;1.55;69.81;97375.13;5053188;28;20063;-54
2022/02/01 02:38:55;;;;;;;38.55;18.58;;;;;;;1.45;69.27;97390.06;5052516;28;20041;-59
2022/02/01 02:41:30;;;;;;;35.65;18.58;;;;;;;1.40;69.65;97393.06;5052757;28;20037;-56
2022/02/01 02:46:44;;;;;;;33.92;17.48;;;;;;;1.34;69.95;97390.09;5032055;28;20180;-56
2022/02/01 02:49:17;;;;;;;31.65;17.33;;;;;;;1.30;69.65;97400.03;5031858;28;20037;-53
2022/02/01 02:51:43;;;;;;;33.88;17.35;;;;;;;1.15;69.47;97383.66;5032769;28;20058;-54
2022/02/01 02:54:13;;;;;;;33.00;17.00;;;;;;;1.24;69.61;97401.38;5032252;28;20057;-56
2022/02/01 02:56:43;;;;;;;34.15;17.77;;;;;;;1.20;69.12;97396.47;5042299;28;20488;-58
2022/02/01 02:59:09;;;;;;;31.98;17.40;;;;;;;1.12;68.99;97397.94;5034842;28;20057;-58
2022/02/01 03:01:35;;;;;;;33.40;17.45;;;;;;;1.07;69.05;97399.28;5032099;28;20425;-52
2022/02/01 03:04:00;;;;;;;34.75;17.08;;;;;;;1.07;69.05;97401.91;5044323;28;20029;-56
2022/02/01 03:06:26;;;;;;;36.28;18.42;;;;;;;1.03;68.94;97403.94;5033234;28;20064;-54
2022/02/01 03:08:51;;;;;;;29.88;16.10;;;;;;;0.83;69.29;97379.22;5032903;28;20059;-54
2022/02/01 03:11:17;;;;;;;35.10;18.10;;;;;;;0.93;69.23;97406.47;5032065;28;20026;-55
2022/02/01 03:13:49;;;;;;;29.17;15.13;;;;;;;1.02;68.31;97422.53;5039038;28;20370;-56
2022/02/01 03:21:31;;;;;;;36.83;18.48;;;;;;;0.83;68.84;97429.25;5031747;28;20037;-57
2022/02/01 03:23:56;;;;;;;34.60;17.55;;;;;;;0.79;69.38;97425.19;5036714;28;20086;-59
2022/02/01 03:26:22;;;;;;;34.38;17.33;;;;;;;0.79;69.18;97427.84;5039551;28;20488;-60
2022/02/01 03:28:47;;;;;;;35.10;17.30;;;;;;;0.79;69.51;97433.94;5069412;28;20114;-58
2022/02/01 03:31:13;;;;;;;35.25;18.38;;;;;;;0.80;68.94;97437.41;5070678;28;20021;-58
2022/02/01 03:33:38;;;;;;;39.35;17.95;;;;;;;0.81;69.17;97444.34;5067816;28;20101;-52
2022/02/01 03:36:04;;;;;;;34.08;17.50;;;;;;;0.75;69.29;97444.84;5046949;28;20584;-59
2022/02/01 03:38:29;;;;;;;34.78;17.15;;;;;;;0.79;69.07;97447.09;5051063;28;20039;-54
2022/02/01 03:40:55;;;;;;;33.60;16.92;;;;;;;0.79;68.83;97448.91;5050237;28;20044;-57
2022/02/01 03:43:20;;;;;;;29.02;16.42;;;;;;;0.75;68.96;97455.38;5050824;28;20025;-53
2022/02/01 03:45:46;;;;;;;32.85;17.55;;;;;;;0.69;69.01;97454.06;5039950;28;20087;-53
2022/02/01 03:48:11;;;;;;;31.63;16.70;;;;;;;0.71;68.62;97465.31;5030446;28;20049;-58
2022/02/01 03:50:37;;;;;;;32.28;16.23;;;;;;;0.68;68.60;97465.56;5030449;28;20033;-57
2022/02/01 03:53:02;;;;;;;31.38;16.45;;;;;;;0.62;68.60;97456.31;5030488;28;20033;-53
2022/02/01 03:55:28;;;;;;;28.73;15.65;;;;;;;0.59;68.61;97460.97;5032224;28;20033;-56
2022/02/01 03:57:53;;;;;;;31.55;15.80;;;;;;;0.56;68.60;97465.53;5029394;28;20029;-54
2022/02/01 04:00:19;;;;;;;29.73;15.48;;;;;;;0.55;68.11;97468.31;5030253;28;20040;-56
2022/02/01 04:02:44;;;;;;;31.00;16.83;;;;;;;0.51;68.24;97475.59;5030211;28;20026;-53
2022/02/01 04:05:10;;;;;;;28.23;15.93;;;;;;;0.49;68.73;97472.25;5029708;28;20358;-58
2022/02/01 04:07:36;;;;;;;30.55;15.40;;;;;;;0.35;68.43;97454.88;5041217;28;20034;-58
2022/02/01 04:10:02;;;;;;;24.83;14.48;;;;;;;0.45;68.56;97469.94;5030353;28;20108;-58
2022/02/01 04:12:29;;;;;;;27.52;14.52;;;;;;;0.36;68.12;97464.44;5029860;28;20079;-54
2022/02/01 04:14:57;;;;;;;28.30;15.10;;;;;;;0.33;68.77;97463.84;5030008;28;20389;-57
2022/02/01 04:17:23;;;;;;;28.30;14.52;;;;;;;0.30;68.42;97470.19;5041416;28;20362;-59
2022/02/01 04:19:49;;;;;;;27.63;15.20;;;;;;;0.31;68.48;97478.91;5049421;28;20124;-57
2022/02/01 04:22:15;;;;;;;26.10;14.43;;;;;;;0.31;68.55;97485.03;5049712;28;20342;-56
2022/02/01 04:24:46;;;;;;;26.45;15.50;;;;;;;0.13;68.22;97459.16;5050275;28;20025;-57
2022/02/01 04:27:23;;;;;;;29.80;14.85;;;;;;;0.22;68.18;97475.19;5044635;28;20099;-58
2022/02/01 04:29:55;;;;;;;27.88;14.65;;;;;;;0.26;68.71;97479.28;5050187;28;20032;-57
2022/02/01 04:32:20;;;;;;;27.10;13.45;;;;;;;0.27;68.40;97494.13;5047837;28;20055;-59
2022/02/01 04:34:50;;;;;;;27.42;15.02;;;;;;;0.25;68.42;97488.13;5048121;28;20478;-59
2022/02/01 04:37:16;;;;;;;27.38;14.15;;;;;;;0.23;68.28;97492.66;5043393;28;20022;-58
2022/02/01 04:39:41;;;;;;;26.63;14.35;;;;;;;0.22;68.29;97490.97;5041018;28;20040;-57
2022/02/01 04:42:07;;;;;;;24.98;13.82;;;;;;;0.22;68.49;97498.88;5048511;28;20040;-53
2022/02/01 04:44:32;;;;;;;23.88;13.15;;;;;;;0.22;68.29;97496.22;5048389;28;20032;-57
2022/02/01 04:46:58;;;;;;;25.48;13.43;;;;;;;0.23;68.38;97498.75;5038430;28;20057;-56
2022/02/01 04:49:23;;;;;;;27.02;14.77;;;;;;;0.24;67.92;97507.47;5030475;28;20551;-55
2022/02/01 04:51:49;;;;;;;26.77;14.13;;;;;;;0.20;68.17;97500.78;5030772;28;20033;-56
2022/02/01 04:54:14;;;;;;;27.67;14.05;;;;;;;0.06;68.34;97488.66;5031879;28;20049;-53
2022/02/01 04:56:40;;;;;;;25.10;13.75;;;;;;;0.16;68.02;97512.50;5038563;28;20025;-58
2022/02/01 04:59:05;;;;;;;25.40;14.10;;;;;;;0.16;68.53;97513.34;5039557;28;20028;-58
2022/02/01 05:01:37;;;;;;;28.40;14.40;;;;;;;0.15;67.89;97530.09;5038134;28;20029;-55
2022/02/01 05:04:05;;;;;;;26.83;14.55;;;;;;;0.16;67.69;97528.28;5038500;28;20538;-59
2022/02/01 05:06:30;;;;;;;25.63;13.27;;;;;;;0.07;67.93;97516.66;5040595;28;20481;-54
2022/02/01 05:08:56;;;;;;;28.17;14.38;;;;;;;0.07;67.58;97529.81;5038635;28;20033;-58
2022/02/01 05:11:22;;;;;;;27.33;13.73;;;;;;;0.10;67.76;97534.84;5039316;28;20032;-54
2022/02/01 05:16:30;;;;;;;27.90;14.40;;;;;;;0.08;67.62;97548.13;5038817;28;20040;-56
2022/02/01 05:19:05;;;;;;;28.33;14.73;;;;;;;0.03;67.55;97538.88;5039639;28;20489;-58
2022/02/01 05:21:31;;;;;;;27.02;13.73;;;;;;;-0.09;67.93;97524.84;5041408;28;20036;-51
2022/02/01 05:23:57;;;;;;;25.48;13.20;;;;;;;0.02;67.87;97551.22;5039813;28;20385;-67
2022/02/01 05:26:26;;;;;;;26.63;14.02;;;;;;;0.02;67.69;97559.13;5039202;28;20083;-59
2022/02/01 05:28:51;;;;;;;29.95;13.70;;;;;;;0.03;68.02;97555.53;5039958;28;20041;-53
2022/02/01 05:31:17;;;;;;;27.08;13.68;;;;;;;0.03;68.09;97558.16;5033008;28;20040;-57
2022/02/01 05:33:42;;;;;;;27.02;13.30;;;;;;;0.01;67.83;97559.22;5041708;28;20435;-53
2022/02/01 05:36:08;;;;;;;27.70;14.48;;;;;;;0.07;67.80;97566.66;5049431;28;20486;-56
2022/02/01 05:38:35;;;;;;;25.73;13.05;;;;;;;0.07;67.95;97567.50;5041412;28;20541;-58
2022/02/01 05:41:01;;;;;;;25.65;13.43;;;;;;;0.09;67.50;97568.22;5030822;28;20086;-56
2022/02/01 05:43:27;;;;;;;25.50;13.65;;;;;;;0.12;67.55;97565.34;5047844;28;20052;-58
2022/02/01 05:45:56;;;;;;;27.33;13.38;;;;;;;0.20;67.91;97574.47;5030884;28;20029;-52
2022/02/01 05:48:22;;;;;;;26.33;14.18;;;;;;;0.24;67.73;97583.81;5044016;28;20037;-51
2022/02/01 05:50:50;;;;;;;25.02;13.13;;;;;;;0.28;67.36;97580.00;5030284;28;20029;-53
2022/02/01 05:53:16;;;;;;;26.88;13.85;;;;;;;0.33;67.29;97583.13;5030119;28;20044;-53
2022/02/01 05:55:42;;;;;;;26.42;13.68;;;;;;;0.36;67.09;97577.63;5029599;28;20083;-57
2022/02/01 05:58:08;;;;;;;27.30;13.85;;;;;;;0.19;67.48;97560.47;5029683;28;20057;-64
2022/02/01 06:00:34;;;;;;;26.60;13.98;;;;;;;0.39;67.22;97598.47;5035313;28;20077;-56
2022/02/01 06:03:00;;;;;;;27.92;14.05;;;;;;;0.42;66.84;97598.22;5033466;28;20021;-62
2022/02/01 06:05:27;;;;;;;30.38;14.18;;;;;;;0.49;66.83;97601.25;5033809;28;20036;-54
2022/02/01 06:07:53;;;;;;;27.52;14.68;;;;;;;0.51;66.69;97596.72;5032107;28;20066;-59
2022/02/01 06:10:19;;;;;;;26.42;14.32;;;;;;;0.52;65.74;97597.56;5041821;28;20029;-57
2022/02/01 06:12:46;;;;;;;25.20;14.30;;;;;;;0.52;66.24;97597.56;5036430;28;20037;-54
2022/02/01 06:15:14;;;;;;;26.27;14.38;;;;;;;0.53;66.18;97600.06;5033157;28;20056;-54
2022/02/01 06:17:41;;;;;;;29.02;14.95;;;;;;;0.48;66.19;97594.31;5032425;28;20029;-57
2022/02/01 06:20:09;;;;;;;29.20;15.23;;;;;;;0.66;66.01;97615.78;5033111;28;20070;-55
2022/02/01 06:22:34;;;;;;;28.42;14.52;;;;;;;0.65;65.56;97616.72;5052671;28;20033;-55
2022/02/01 06:25:01;;;;;;;27.77;14.57;;;;;;;0.70;65.42;97619.03;5053106;28;20025;-57
2022/02/01 06:27:27;;;;;;;31.60;15.02;;;;;;;0.77;65.49;97624.69;5053414;28;20032;-56
2022/02/01 06:29:54;;;;;;;30.20;15.52;;;;;;;0.81;65.71;97626.13;5052617;28;20072;-58
2022/02/01 06:32:19;;;;;;;32.90;15.60;;;;;;;0.83;64.99;97634.75;5051420;28;20505;-58
2022/02/01 06:34:45;;;;;;;31.25;16.35;;;;;;;0.82;65.09;97630.44;5052847;28;20132;-56
2022/02/01 06:37:11;;;;;;;30.27;15.13;;;;;;;0.80;65.26;97635.78;5052528;28;20445;-54
2022/02/01 06:39:37;;;;;;;30.23;16.60;;;;;;;0.79;65.08;97646.47;5046248;28;20095;-57
2022/02/01 06:42:04;;;;;;;33.47;16.50;;;;;;;0.76;65.72;97637.00;5033044;28;20087;-57
2022/02/01 06:44:31;;;;;;;32.85;17.08;;;;;;;0.76;65.60;97642.25;5032750;28;20029;-57
2022/02/01 06:46:56;;;;;;;33.40;16.95;;;;;;;0.80;65.85;97656.06;5032572;28;20516;-57
2022/02/01 06:49:22;;;;;;;31.75;17.13;;;;;;;0.83;65.38;97653.19;5034509;28;20041;-57
2022/02/01 06:51:48;;;;;;;30.30;15.85;;;;;;;0.82;65.44;97651.50;5032524;28;20378;-56
2022/02/01 06:54:14;;;;;;;31.92;17.33;;;;;;;0.93;65.33;97664.69;5032693;28;20041;-54
2022/02/01 06:56:39;;;;;;;34.88;17.25;;;;;;;0.98;65.31;97666.97;5033081;28;20032;-55
2022/02/01 06:59:06;;;;;;;35.15;17.27;;;;;;;1.10;64.69;97675.75;5033084;28;20392;-61
2022/02/01 07:01:32;;;;;;;34.83;17.70;;;;;;;1.21;65.02;97670.50;5040739;28;20480;-57
2022/02/01 07:03:59;;;;;;;35.28;18.15;;;;;;;1.25;64.71;97671.94;5041672;28;20021;-56
2022/02/01 07:06:25;;;;;;;36.38;18.08;;;;;;;1.08;64.33;97640.75;5042316;28;20053;-55
2022/02/01 07:08:52;;;;;;;36.40;18.73;;;;;;;1.27;64.61;97674.44;5032410;28;20131;-62
2022/02/01 07:11:20;;;;;;;39.47;18.60;;;;;;;1.19;64.29;97653.94;5044838;28;20024;-59
2022/02/01 07:13:47;;;;;;;37.95;18.15;;;;;;;1.38;64.85;97678.88;5049952;28;20409;-61
2022/02/01 07:16:14;;;;;;;40.35;18.98;;;;;;;1.47;64.81;97680.84;5032728;28;20034;-58
2022/02/01 07:18:39;;;;;;;41.58;19.85;;;;;;;1.52;64.14;97683.09;5032047;28;20041;-56
2022/02/01 07:21:05;;;;;;;45.58;20.70;;;;;;;1.32;63.56;97659.09;5030526;28;20033;-59
2022/02/01 07:23:32;;;;;;;41.88;19.67;;;;;;;1.46;63.59;97696.75;5032324;28;20026;-61
2022/02/01 07:25:58;;;;;;;44.25;22.00;;;;;;;1.36;64.68;97696.63;5039707;28;20029;-60
2022/02/01 07:28:26;;;;;;;43.38;21.33;;;;;;;1.33;64.62;97699.50;5040287;28;20464;-59
2022/02/01 07:30:51;;;;;;;48.50;22.98;;;;;;;1.33;65.06;97691.59;5039654;28;20028;-61
2022/02/01 07:33:17;;;;;;;49.90;21.90;;;;;;;1.35;65.05;97687.91;5041405;28;20030;-59
2022/02/01 07:35:45;;;;;;;48.65;22.73;;;;;;;1.35;65.21;97689.69;5036494;28;20030;-57
2022/02/01 07:38:13;;;;;;;52.42;23.35;;;;;;;1.38;65.46;97695.56;5041031;28;20105;-62
2022/02/01 07:40:39;;;;;;;51.67;22.67;;;;;;;1.41;65.36;97699.75;5046118;28;20048;-61
2022/02/01 07:43:05;;;;;;;49.13;23.00;;;;;;;1.45;64.94;97690.66;5051644;28;20025;-60
2022/02/01 07:45:31;;;;;;;50.53;22.88;;;;;;;1.48;64.99;97690.41;5052387;28;20491;-61
2022/02/01 07:47:59;;;;;;;46.53;21.42;;;;;;;1.55;65.19;97702.16;5045839;28;20042;-60
2022/02/01 07:50:26;;;;;;;49.38;21.30;;;;;;;1.60;64.94;97704.44;5040922;28;20068;-62
2022/02/01 07:52:52;;;;;;;50.20;21.80;;;;;;;1.58;64.68;97701.91;5040537;28;20465;-62
2022/02/01 07:55:17;;;;;;;48.50;20.73;;;;;;;1.58;64.75;97707.19;5039371;28;20041;-60
2022/02/01 07:57:43;;;;;;;47.22;20.42;;;;;;;1.60;64.65;97709.72;5040908;28;20040;-62
2022/02/01 08:00:10;;;;;;;48.17;21.63;;;;;;;1.43;65.11;97682.00;5042705;28;20037;-62
2022/02/01 08:02:36;;;;;;;45.47;21.23;;;;;;;1.61;65.19;97721.94;5041861;28;20040;-65
2022/02/01 08:05:02;;;;;;;43.88;20.00;;;;;;;1.65;65.03;97722.53;5050899;28;20029;-63
2022/02/01 08:07:28;;;;;;;45.00;20.60;;;;;;;1.60;64.71;97707.09;5049069;28;20027;-63
2022/02/01 08:10:00;;;;;;;45.40;19.77;;;;;;;1.72;64.94;97723.75;5051876;28;20040;-60
2022/02/01 08:14:00;;;;;;;44.78;20.02;;;;;;;1.74;64.44;97719.19;5039366;28;20037;-61
2022/02/01 08:20:26;;;;;;;40.42;19.00;;;;;;;1.75;64.63;97691.84;5047678;28;20027;-61
2022/02/01 08:25:23;;;;;;;41.58;19.77;;;;;;;1.98;64.34;97729.59;5051927;28;20031;-65
2022/02/01 08:27:49;;;;;;;42.05;20.90;;;;;;;1.97;64.24;97727.94;5042371;28;20059;-62
2022/02/01 08:30:14;;;;;;;41.95;20.30;;;;;;;2.01;64.34;97733.81;5044133;28;20033;-63
2022/02/01 08:32:40;;;;;;;43.58;19.70;;;;;;;2.02;64.39;97735.50;5048542;28;20037;-63
2022/02/01 08:35:06;;;;;;;41.58;19.35;;;;;;;2.07;64.37;97741.25;5068607;28;20028;-60
2022/02/01 08:37:32;;;;;;;41.25;19.58;;;;;;;2.07;63.85;97732.50;5064923;28;20047;-57
2022/02/01 08:39:58;;;;;;;39.55;18.63;;;;;;;2.09;63.93;97730.56;5053747;28;20033;-54
2022/02/01 08:42:24;;;;;;;38.08;17.23;;;;;;;2.15;64.41;97728.25;5055792;28;20037;-53
2022/02/01 08:44:50;;;;;;;37.60;18.73;;;;;;;2.20;64.14;97735.81;5053864;28;20107;-54
2022/02/01 08:47:15;;;;;;;38.42;18.55;;;;;;;2.23;63.86;97734.75;5036646;28;20053;-59
2022/02/01 08:49:42;;;;;;;38.28;17.58;;;;;;;2.20;63.67;97721.78;5061927;28;20033;-58
2022/02/01 08:52:12;;;;;;;32.60;16.77;;;;;;;2.18;63.71;97715.81;5060516;28;20033;-56
2022/02/01 08:54:38;;;;;;;31.17;15.55;;;;;;;2.23;63.77;97722.38;5064225;28;20030;-57
2022/02/01 08:57:21;;;;;;;33.85;16.33;;;;;;;2.29;63.58;97721.03;5048265;28;20103;-63
2022/02/01 08:59:58;;;;;;;32.30;15.85;;;;;;;2.35;63.60;97725.81;5040386;28;20021;-58
2022/02/01 09:02:27;;;;;;;34.38;16.05;;;;;;;2.30;63.50;97720.09;5040363;28;20517;-57
2022/02/01 09:04:53;;;;;;;29.35;14.90;;;;;;;2.33;63.27;97725.13;5037322;28;20155;-58
2022/02/01 09:07:19;;;;;;;35.58;15.88;;;;;;;2.29;63.05;97731.59;5052660;28;20036;-60
2022/02/01 09:09:45;;;;;;;32.40;15.65;;;;;;;2.24;63.47;97729.31;5061167;28;20083;-61
2022/02/01 09:12:10;;;;;;;32.72;15.65;;;;;;;2.22;63.58;97727.78;5061589;28;20076;-56
2022/02/01 09:14:36;;;;;;;34.25;15.25;;;;;;;2.21;63.23;97731.41;5055729;28;20464;-55
2022/02/01 09:17:03;;;;;;;28.10;13.55;;;;;;;2.24;64.14;97728.50;5065894;28;20067;-56
2022/02/01 09:19:29;;;;;;;29.67;14.32;;;;;;;2.25;63.71;97738.94;5044932;28;20051;-58
2022/02/01 09:21:56;;;;;;;27.25;14.30;;;;;;;2.27;63.49;97733.53;5061220;28;20036;-63
2022/02/01 09:24:22;;;;;;;28.17;14.82;;;;;;;2.32;63.78;97741.91;5062178;28;20120;-60
2022/02/01 09:26:48;;;;;;;37.17;16.45;;;;;;;2.39;63.04;97732.53;5053167;28;20033;-62
2022/02/01 09:29:13;;;;;;;43.90;18.30;;;;;;;2.53;63.32;97749.09;5064820;28;20032;-61
2022/02/01 09:31:39;;;;;;;34.50;15.80;;;;;;;2.63;62.59;97742.06;5053376;28;20032;-58
2022/02/01 09:34:06;;;;;;;32.05;14.70;;;;;;;2.79;62.03;97744.31;5061646;28;20037;-59
2022/02/01 09:36:32;;;;;;;31.30;13.93;;;;;;;2.82;61.23;97738.78;5068102;28;20078;-60
2022/02/01 09:38:58;;;;;;;29.73;14.82;;;;;;;2.85;61.39;97737.66;5056703;28;20421;-61
2022/02/01 09:41:24;;;;;;;31.05;14.95;;;;;;;2.85;61.71;97749.09;5069629;28;20409;-60
2022/02/01 09:43:52;;;;;;;26.63;13.48;;;;;;;2.88;61.65;97750.63;5060824;28;20020;-57
2022/02/01 09:46:17;;;;;;;23.85;13.07;;;;;;;2.87;61.45;97741.03;5061117;28;20057;-60
2022/02/01 09:48:43;;;;;;;29.88;14.75;;;;;;;2.89;61.76;97747.03;5068635;28;20044;-57
2022/02/01 09:51:09;;;;;;;32.88;15.55;;;;;;;2.87;61.46;97744.53;5057437;28;20037;-65
2022/02/01 09:53:36;;;;;;;42.10;19.27;;;;;;;2.82;61.38;97728.22;5072356;28;20115;-56
2022/02/01 09:56:02;;;;;;;36.72;17.35;;;;;;;2.81;60.89;97730.97;5057550;28;20032;-56
2022/02/01 09:58:33;;;;;;;34.17;15.00;;;;;;;2.91;61.25;97739.84;5059873;28;20055;-57
2022/02/01 10:01:01;;;;;;;30.23;13.60;;;;;;;2.83;61.18;97755.47;5056780;28;20077;-58
2022/02/01 10:03:26;;;;;;;26.65;13.05;;;;;;;2.76;61.19;97741.91;5068266;28;20021;-58
2022/02/01 10:06:07;;;;;;;25.02;12.85;;;;;;;2.79;61.64;97739.03;5064604;28;20041;-53
2022/02/01 10:08:34;;;;;;;23.75;12.45;;;;;;;2.72;61.45;97740.50;5053693;28;20049;-60
2022/02/01 10:11:00;;;;;;;25.95;13.18;;;;;;;2.69;61.81;97738.94;5067532;28;20041;-54
2022/02/01 10:13:26;;;;;;;29.15;13.23;;;;;;;2.67;61.19;97735.59;5058156;28;20044;-58
2022/02/01 10:16:10;;;;;;;23.52;11.27;;;;;;;2.55;61.08;97704.88;5060449;28;20088;-59
2022/02/01 10:18:36;;;;;;;21.35;11.50;;;;;;;2.58;61.02;97715.19;5062455;28;20048;-55
2022/02/01 10:21:09;;;;;;;23.85;12.07;;;;;;;2.72;61.57;97743.13;5052737;28;20029;-58
2022/02/01 10:23:40;;;;;;;23.25;11.50;;;;;;;2.74;61.06;97741.19;5066905;28;20052;-55
2022/02/01 10:26:13;;;;;;;25.23;12.27;;;;;;;2.85;61.10;97745.59;5063470;28;20032;-61
2022/02/01 10:28:54;;;;;;;26.00;12.65;;;;;;;2.96;60.95;97732.34;5057948;28;20380;-65
2022/02/01 10:31:34;;;;;;;27.65;12.32;;;;;;;3.16;60.66;97735.16;5041421;28;20029;-58
2022/02/01 10:37:25;;;;;;;29.35;12.40;;;;;;;3.44;60.31;97717.75;5024941;28;20054;-58
2022/02/01 10:40:05;;;;;;;24.52;12.25;;;;;;;3.55;59.95;97730.06;5019295;28;20036;-57
2022/02/01 10:42:31;;;;;;;26.73;12.50;;;;;;;3.51;58.88;97733.13;5047811;28;20205;-56
2022/02/01 10:44:59;;;;;;;22.02;11.18;;;;;;;3.54;59.10;97733.69;5054802;28;20387;-60
2022/02/01 10:47:34;;;;;;;23.77;12.15;;;;;;;3.53;59.54;97739.13;5057483;28;20044;-58
2022/02/01 10:50:07;;;;;;;;;;;;;;;3.66;60.14;97741.56;5063543;28;20033;-61
2022/02/01 10:52:39;;;;;;;20.23;10.25;;;;;;;3.40;58.81;97741.97;5066242;28;20016;-61
2022/02/01 10:55:06;;;;;;;20.55;10.80;;;;;;;3.24;59.54;97751.19;5068774;28;20032;-60
2022/02/01 10:57:32;;;;;;;19.23;10.68;;;;;;;3.07;59.67;97749.13;5058306;28;20036;-61
2022/02/01 10:59:58;;;;;;;17.55;9.93;;;;;;;2.95;59.89;97750.97;5066683;28;20074;-63
2022/02/01 11:02:25;;;;;;;19.40;10.13;;;;;;;2.85;60.78;97764.09;5058764;28;20396;-60
2022/02/01 11:04:53;;;;;;;21.73;10.23;;;;;;;2.70;60.32;97742.41;5068610;28;20074;-59
2022/02/01 11:07:20;;;;;;;17.58;9.60;;;;;;;2.64;60.87;97762.25;5039130;28;20053;-60
2022/02/01 11:09:45;;;;;;;19.40;9.88;;;;;;;2.52;61.41;97757.97;5060340;28;20058;-58
2022/02/01 11:12:12;;;;;;;18.02;9.57;;;;;;;2.43;62.00;97757.75;5054420;28;20032;-64
2022/02/01 11:14:40;;;;;;;20.08;10.52;;;;;;;2.36;61.67;97759.19;5057538;28;20037;-62
2022/02/01 11:17:33;;;;;;;21.90;10.55;;;;;;;2.37;62.14;97760.88;5068885;28;20035;-60
2022/02/01 11:19:58;;;;;;;18.00;9.88;;;;;;;2.42;61.95;97768.44;5054198;28;20059;-61
2022/02/01 11:22:32;;;;;;;23.77;10.93;;;;;;;2.41;61.88;97766.75;5057479;28;20029;-61
2022/02/01 11:25:16;;;;;;;20.65;10.98;;;;;;;2.35;62.11;97762.78;5055169;28;20506;-60
2022/02/01 11:30:51;;;;;;;17.90;10.25;;;;;;;2.30;62.91;97767.63;5059792;28;20028;-59
2022/02/01 11:33:17;;;;;;;21.75;11.27;;;;;;;2.21;62.87;97765.72;5038720;28;20025;-63
2022/02/01 11:35:42;;;;;;;22.25;11.20;;;;;;;2.17;62.84;97764.25;5065105;28;20068;-62
2022/02/01 11:38:21;;;;;;;18.73;10.20;;;;;;;2.26;63.08;97769.66;5062669;28;20055;-62
2022/02/01 11:40:57;;;;;;;19.63;10.50;;;;;;;2.20;62.65;97774.59;5054425;28;20028;-63
2022/02/01 11:43:25;;;;;;;17.88;10.18;;;;;;;2.18;62.69;97781.81;5039951;28;20046;-62
2022/02/01 11:45:56;;;;;;;22.73;10.20;;;;;;;2.12;63.00;97772.56;5063461;28;20039;-62
2022/02/01 11:48:24;;;;;;;15.05;9.13;;;;;;;2.08;62.64;97777.22;5063744;28;20036;-63
2022/02/01 11:50:58;;;;;;;16.00;8.98;;;;;;;2.09;62.73;97778.09;5054157;28;20048;-63
2022/02/01 11:53:26;;;;;;;18.95;9.75;;;;;;;2.04;62.54;97785.50;5051679;28;20050;-61
2022/02/01 11:55:53;;;;;;;14.48;9.05;;;;;;;2.02;62.15;97783.00;5061246;28;20120;-62
2022/02/01 11:59:00;;;;;;;17.30;8.88;;;;;;;2.19;62.82;97786.13;5062335;28;20051;-62
2022/02/01 12:01:30;;;;;;;14.48;7.97;;;;;;;2.14;62.15;97787.31;5053027;28;20126;-64
2022/02/01 12:04:05;;;;;;;16.70;9.20;;;;;;;2.25;62.31;97790.91;5053799;28;20051;-61
2022/02/01 12:06:54;;;;;;;17.38;7.72;;;;;;;2.25;62.13;97775.91;5051486;28;20041;-59
2022/02/01 12:09:22;;;;;;;13.38;7.80;;;;;;;2.23;61.62;97787.56;5038678;28;20044;-58
2022/02/01 12:11:57;;;;;;;14.82;7.03;;;;;;;2.33;61.26;97790.31;5062816;28;20036;-65
2022/02/01 12:14:23;;;;;;;14.82;7.22;;;;;;;2.26;61.58;97795.22;5063099;28;20039;-59
2022/02/01 12:16:51;;;;;;;15.40;6.72;;;;;;;2.20;61.00;97793.09;5046313;28;20038;-61
2022/02/01 12:19:38;;;;;;;13.43;7.10;;;;;;;2.21;60.64;97808.78;5038064;28;20028;-59
2022/02/01 12:22:22;;;;;;;14.18;6.63;;;;;;;2.20;61.75;97811.56;5045317;28;20116;-62
2022/02/01 12:24:48;;;;;;;13.52;6.97;;;;;;;1.90;60.73;97787.44;5046467;28;20029;-63
2022/02/01 12:27:14;;;;;;;13.68;6.82;;;;;;;1.92;61.06;97788.16;5065183;28;20134;-62
2022/02/01 12:29:40;;;;;;;12.70;6.18;;;;;;;2.07;61.38;97817.78;5063189;28;20119;-61
2022/02/01 12:32:07;;;;;;;9.80;5.32;;;;;;;2.03;60.28;97819.00;5059361;28;20044;-62
2022/02/01 12:34:33;;;;;;;7.63;4.47;;;;;;;1.97;59.86;97822.13;5056606;28;20082;-62
2022/02/01 12:36:58;;;;;;;7.57;4.00;;;;;;;1.79;59.58;97827.84;5065299;28;20024;-65
2022/02/01 12:39:34;;;;;;;7.95;4.35;;;;;;;1.71;60.04;97831.06;5038036;28;20035;-62
2022/02/01 12:42:13;;;;;;;;;;;;;;;1.84;61.24;97830.97;5061028;28;20029;-61
2022/02/01 12:47:25;;;;;;;7.35;3.97;;;;;;;1.45;60.83;97837.47;5043326;28;20045;-60
2022/02/01 12:49:53;;;;;;;6.93;3.85;;;;;;;1.27;60.37;97841.38;5047485;28;20109;-61
2022/02/01 12:52:27;;;;;;;8.13;4.25;;;;;;;1.14;60.49;97841.47;5040228;28;20048;-62
2022/02/01 12:55:02;;;;;;;9.90;3.60;;;;;;;0.99;60.79;97843.44;5066481;28;20060;-61
2022/02/01 12:57:30;;;;;;;8.10;4.25;;;;;;;0.77;60.80;97836.22;5053745;28;20024;-61
2022/02/01 13:00:05;;;;;;;6.20;3.45;;;;;;;0.68;61.17;97835.09;5048480;28;20382;-54
2022/02/01 13:02:34;;;;;;;6.85;3.90;;;;;;;0.61;61.09;97838.31;5036754;28;20485;-59
2022/02/01 13:05:05;;;;;;;11.20;3.95;;;;;;;0.52;61.77;97842.44;5049032;28;20033;-59